createdAt,value
2022-12-18T00:00:56.429Z,45.10
2022-12-18T00:03:19.060Z,51.07
2022-12-18T00:05:52.205Z,43.13
2022-12-18T00:08:15.072Z,45.15
2022-12-18T00:10:37.780Z,49.13
2022-12-18T00:13:03.825Z,40.97
2022-12-18T00:15:29.242Z,47.30
2022-12-18T00:17:51.944Z,45.72
2022-12-18T00:20:14.549Z,45.85
2022-12-18T00:22:37.310Z,47.05
2022-12-18T00:24:59.892Z,46.47
2022-12-18T00:27:22.436Z,43.87
2022-12-18T00:29:45.240Z,42.53
2022-12-18T00:32:07.869Z,43.55
2022-12-18T00:34:30.809Z,42.80
2022-12-18T00:36:53.305Z,42.78
2022-12-18T00:39:16.034Z,44.17
2022-12-18T00:41:59.403Z,48.42
2022-12-18T00:44:21.996Z,45.50
2022-12-18T00:46:45.571Z,37.25
2022-12-18T00:49:08.195Z,45.13
2022-12-18T00:51:30.905Z,49.33
2022-12-18T00:53:53.802Z,45.53
2022-12-18T00:56:16.415Z,44.00
2022-12-18T00:58:39.067Z,37.38
2022-12-18T01:01:01.811Z,41.92
2022-12-18T01:03:24.607Z,48.87
2022-12-18T01:05:47.551Z,46.28
2022-12-18T01:08:10.507Z,43.10
2022-12-18T01:10:33.222Z,40.33
2022-12-18T01:12:56.694Z,45.55
2022-12-18T01:15:19.836Z,43.50
2022-12-18T01:17:42.644Z,43.33
2022-12-18T01:20:06.532Z,40.88
2022-12-18T01:22:29.134Z,43.53
2022-12-18T01:24:51.711Z,43.80
2022-12-18T01:27:14.521Z,46.53
2022-12-18T01:29:37.058Z,43.75
2022-12-18T01:31:59.756Z,45.80
2022-12-18T01:34:22.953Z,40.13
2022-12-18T01:36:45.728Z,48.78
2022-12-18T01:39:13.829Z,48.33
2022-12-18T01:41:57.364Z,43.78
2022-12-18T01:44:58.939Z,43.38
2022-12-18T01:47:43.665Z,42.85
2022-12-18T01:50:21.172Z,42.80
2022-12-18T01:52:47.715Z,40.83
2022-12-18T01:55:12.051Z,43.85
2022-12-18T01:57:35.880Z,44.47
2022-12-18T02:00:05.297Z,45.63
2022-12-18T02:02:36.459Z,47.65
2022-12-18T02:04:59.418Z,41.70
2022-12-18T02:07:43.764Z,44.92
2022-12-18T02:10:31.415Z,39.55
2022-12-18T02:13:03.935Z,45.65
2022-12-18T02:15:37.056Z,52.65
2022-12-18T02:18:09.555Z,52.63
2022-12-18T02:20:36.188Z,43.83
2022-12-18T02:23:25.386Z,40.75
2022-12-18T02:26:20.780Z,39.50
2022-12-18T02:29:07.120Z,46.63
2022-12-18T02:31:40.035Z,47.67
2022-12-18T02:34:06.515Z,49.00
2022-12-18T02:36:34.331Z,42.72
2022-12-18T02:38:58.133Z,43.90
2022-12-18T02:41:21.996Z,45.70
2022-12-18T02:44:02.730Z,47.43
2022-12-18T02:46:34.202Z,46.03
2022-12-18T02:49:17.117Z,50.60
2022-12-18T02:51:51.558Z,46.10
2022-12-18T02:54:40.879Z,44.53
2022-12-18T02:57:27.427Z,44.17
2022-12-18T03:00:04.720Z,44.33
2022-12-18T03:03:06.262Z,44.00
2022-12-18T03:05:40.816Z,46.95
2022-12-18T03:08:13.412Z,46.60
2022-12-18T03:10:45.394Z,43.93
2022-12-18T03:13:15.569Z,46.03
2022-12-18T03:15:43.552Z,46.90
2022-12-18T03:18:16.058Z,44.00
2022-12-18T03:20:43.592Z,49.17
2022-12-18T03:23:14.059Z,44.50
2022-12-18T03:25:40.735Z,47.00
2022-12-18T03:28:05.348Z,45.25
2022-12-18T03:30:30.608Z,43.33
2022-12-18T03:33:09.947Z,46.53
2022-12-18T03:35:40.163Z,43.47
2022-12-18T03:38:03.256Z,49.25
2022-12-18T03:40:36.334Z,43.83
2022-12-18T03:43:26.677Z,41.28
2022-12-18T03:45:55.602Z,37.33
2022-12-18T03:48:38.799Z,42.77
2022-12-18T03:51:27.908Z,42.38
2022-12-18T03:53:58.111Z,40.15
2022-12-18T03:56:29.615Z,40.15
2022-12-18T03:58:54.998Z,45.20
2022-12-18T04:01:26.899Z,46.50
2022-12-18T04:03:51.175Z,45.45
2022-12-18T04:06:17.459Z,45.58
2022-12-18T04:08:42.128Z,43.42
2022-12-18T04:11:07.588Z,47.22
2022-12-18T04:13:35.276Z,50.53
2022-12-18T04:16:00.701Z,47.80
2022-12-18T04:18:23.839Z,41.25
2022-12-18T04:20:46.601Z,50.38
2022-12-18T04:23:09.790Z,42.90
2022-12-18T04:25:33.122Z,41.43
2022-12-18T04:28:03.002Z,41.83
2022-12-18T04:30:26.147Z,48.60
2022-12-18T04:32:52.151Z,43.97
2022-12-18T04:35:16.205Z,39.97
2022-12-18T04:37:40.223Z,48.10
2022-12-18T04:40:03.110Z,49.47
2022-12-18T04:42:34.042Z,41.28
2022-12-18T04:44:56.634Z,46.35
2022-12-18T04:47:19.186Z,46.38
2022-12-18T04:49:41.914Z,48.73
2022-12-18T04:52:04.972Z,55.05
2022-12-18T04:54:27.656Z,46.72
2022-12-18T04:56:50.261Z,49.55
2022-12-18T04:59:13.063Z,48.67
2022-12-18T05:01:56.546Z,50.27
2022-12-18T05:04:19.296Z,50.60
2022-12-18T05:06:42.551Z,46.10
2022-12-18T05:09:05.177Z,44.50
2022-12-18T05:11:28.537Z,43.67
2022-12-18T05:13:51.088Z,39.63
2022-12-18T05:16:14.806Z,47.92
2022-12-18T05:18:38.077Z,45.15
2022-12-18T05:21:00.951Z,51.17
2022-12-18T05:23:24.634Z,49.03
2022-12-18T05:26:07.144Z,50.13
2022-12-18T05:28:31.679Z,44.10
2022-12-18T05:30:57.102Z,51.78
2022-12-18T05:33:21.243Z,49.28
2022-12-18T05:35:44.048Z,42.95
2022-12-18T05:38:06.703Z,49.43
2022-12-18T05:40:29.281Z,47.75
2022-12-18T05:42:52.927Z,48.67
2022-12-18T05:45:15.592Z,52.53
2022-12-18T05:47:38.237Z,54.30
2022-12-18T05:50:01.433Z,48.07
2022-12-18T05:52:25.101Z,46.05
2022-12-18T05:54:47.676Z,50.65
2022-12-18T05:57:10.293Z,47.55
2022-12-18T05:59:33.177Z,44.45
2022-12-18T06:01:55.884Z,45.40
2022-12-18T06:04:18.603Z,47.50
2022-12-18T06:06:41.217Z,45.58
2022-12-18T06:09:09.280Z,52.22
2022-12-18T06:11:31.845Z,49.72
2022-12-18T06:13:58.591Z,47.40
2022-12-18T06:16:22.230Z,53.15
2022-12-18T06:18:44.853Z,51.05
2022-12-18T06:21:07.742Z,46.55
2022-12-18T06:23:30.254Z,47.60
2022-12-18T06:25:53.446Z,42.83
2022-12-18T06:28:16.533Z,49.65
2022-12-18T06:30:39.144Z,49.17
2022-12-18T06:33:01.810Z,47.85
2022-12-18T06:35:24.591Z,45.53
2022-12-18T06:37:47.132Z,45.43
2022-12-18T06:40:10.189Z,52.45
2022-12-18T06:42:33.079Z,47.35
2022-12-18T06:44:55.840Z,50.58
2022-12-18T06:47:19.100Z,49.45
2022-12-18T06:49:42.064Z,48.97
2022-12-18T06:52:04.641Z,47.30
2022-12-18T06:54:27.446Z,47.55
2022-12-18T06:56:49.943Z,37.70
2022-12-18T06:59:14.664Z,39.63
2022-12-18T07:01:44.439Z,50.43
2022-12-18T07:04:31.592Z,53.80
2022-12-18T07:06:54.296Z,49.15
2022-12-18T07:09:17.332Z,48.50
2022-12-18T07:11:40.223Z,50.20
2022-12-18T07:14:02.871Z,53.87
2022-12-18T07:16:26.099Z,46.45
2022-12-18T07:18:48.959Z,50.15
2022-12-18T07:21:17.506Z,46.67
2022-12-18T07:23:41.065Z,49.65
2022-12-18T07:26:09.754Z,51.83
2022-12-18T07:28:33.459Z,52.97
2022-12-18T07:30:56.123Z,48.67
2022-12-18T07:33:18.959Z,50.05
2022-12-18T07:35:41.608Z,51.40
2022-12-18T07:38:04.329Z,51.87
2022-12-18T07:40:26.945Z,54.15
2022-12-18T07:42:49.532Z,51.88
2022-12-18T07:45:12.345Z,47.50
2022-12-18T07:47:37.136Z,52.50
2022-12-18T07:49:59.958Z,45.07
2022-12-18T07:52:25.968Z,44.22
2022-12-18T07:54:50.972Z,53.17
2022-12-18T07:57:34.020Z,49.80
2022-12-18T07:59:56.116Z,51.80
2022-12-18T08:02:18.822Z,48.63
2022-12-18T08:04:41.534Z,49.08
2022-12-18T08:07:04.084Z,54.20
2022-12-18T08:09:26.868Z,52.25
2022-12-18T08:11:49.454Z,49.28
2022-12-18T08:14:12.200Z,54.03
2022-12-18T08:16:35.245Z,55.65
2022-12-18T08:18:58.223Z,50.58
2022-12-18T08:21:29.473Z,52.10
2022-12-18T08:23:53.791Z,60.08
2022-12-18T08:26:16.845Z,49.10
2022-12-18T08:28:39.693Z,63.65
2022-12-18T08:31:12.754Z,58.40
2022-12-18T08:33:36.188Z,53.22
2022-12-18T08:36:02.661Z,53.47
2022-12-18T08:38:25.413Z,54.70
2022-12-18T08:40:48.196Z,58.15
2022-12-18T08:43:30.075Z,58.38
2022-12-18T08:45:52.824Z,55.65
2022-12-18T08:48:19.277Z,49.13
2022-12-18T08:50:44.681Z,57.50
2022-12-18T08:53:07.490Z,57.13
2022-12-18T08:55:30.433Z,52.08
2022-12-18T08:57:53.019Z,60.78
2022-12-18T09:00:15.887Z,56.08
2022-12-18T09:02:39.849Z,59.10
2022-12-18T09:05:02.511Z,51.75
2022-12-18T09:07:25.176Z,56.17
2022-12-18T09:09:48.028Z,51.88
2022-12-18T09:12:11.136Z,53.55
2022-12-18T09:14:33.786Z,55.23
2022-12-18T09:16:56.383Z,55.63
2022-12-18T09:19:19.094Z,55.40
2022-12-18T09:21:47.609Z,56.28
2022-12-18T09:24:14.398Z,56.13
2022-12-18T09:26:37.575Z,54.13
2022-12-18T09:29:00.685Z,61.35
2022-12-18T09:31:25.585Z,54.58
2022-12-18T09:33:48.420Z,59.53
2022-12-18T09:36:13.452Z,52.55
2022-12-18T09:38:37.046Z,53.30
2022-12-18T09:41:22.759Z,57.55
2022-12-18T09:43:54.776Z,58.38
2022-12-18T09:46:22.754Z,52.58
2022-12-18T09:48:52.400Z,54.33
2022-12-18T09:51:22.477Z,53.70
2022-12-18T09:53:51.727Z,49.30
2022-12-18T09:56:19.601Z,53.35
2022-12-18T09:58:47.616Z,57.63
2022-12-18T10:01:13.092Z,55.05
2022-12-18T10:03:35.775Z,55.37
2022-12-18T10:06:14.569Z,58.10
2022-12-18T10:08:58.919Z,57.33
2022-12-18T10:12:00.429Z,56.25
2022-12-18T10:14:42.915Z,55.00
2022-12-18T10:17:30.055Z,56.40
2022-12-18T10:20:01.976Z,53.47
2022-12-18T10:22:39.503Z,57.08
2022-12-18T10:25:25.544Z,57.42
2022-12-18T10:27:49.315Z,56.63
2022-12-18T10:30:22.129Z,57.63
2022-12-18T10:32:44.671Z,54.75
2022-12-18T10:35:18.120Z,52.65
2022-12-18T10:38:20.345Z,52.67
2022-12-18T10:41:03.356Z,55.38
2022-12-18T10:43:35.724Z,52.13
2022-12-18T10:46:21.646Z,50.05
2022-12-18T10:48:58.746Z,50.75
2022-12-18T10:51:25.263Z,50.00
2022-12-18T10:53:57.828Z,47.92
2022-12-18T10:56:22.096Z,46.30
2022-12-18T10:58:57.711Z,51.88
2022-12-18T11:01:23.652Z,49.05
2022-12-18T11:04:02.320Z,47.60
2022-12-18T11:06:26.165Z,46.78
2022-12-18T11:09:19.932Z,51.13
2022-12-18T11:11:50.286Z,51.25
2022-12-18T11:14:19.337Z,45.50
2022-12-18T11:17:24.777Z,47.78
2022-12-18T11:19:40.880Z,46.95
2022-12-18T11:22:21.394Z,51.10
2022-12-18T11:24:53.127Z,49.40
2022-12-18T11:27:25.402Z,46.33
2022-12-18T11:29:52.042Z,42.45
2022-12-18T11:32:38.221Z,46.40
2022-12-18T11:35:26.325Z,46.27
2022-12-18T11:37:58.601Z,42.17
2022-12-18T11:40:32.240Z,45.97
2022-12-18T11:43:10.894Z,41.90
2022-12-18T11:45:44.141Z,41.20
2022-12-18T11:48:17.329Z,46.00
2022-12-18T11:50:47.456Z,41.30
2022-12-18T11:53:13.948Z,40.85
2022-12-18T11:55:52.167Z,40.80
2022-12-18T11:58:31.646Z,40.90
2022-12-18T12:01:21.344Z,38.97
2022-12-18T12:04:35.088Z,40.38
2022-12-18T12:07:16.183Z,36.75
2022-12-18T12:09:44.940Z,32.72
2022-12-18T12:12:48.750Z,36.17
2022-12-18T12:15:31.979Z,41.83
2022-12-18T12:18:22.380Z,39.13
2022-12-18T12:20:57.279Z,41.75
2022-12-18T12:23:28.895Z,38.28
2022-12-18T12:26:15.832Z,33.97
2022-12-18T12:29:10.229Z,34.73
2022-12-18T12:31:45.272Z,30.35
2022-12-18T12:34:19.974Z,33.45
2022-12-18T12:37:11.804Z,37.53
2022-12-18T12:39:38.904Z,36.20
2022-12-18T12:42:22.050Z,34.10
2022-12-18T12:44:55.771Z,35.15
2022-12-18T12:47:27.908Z,37.15
2022-12-18T12:49:51.711Z,35.63
2022-12-18T12:52:50.033Z,36.72
2022-12-18T12:55:19.867Z,33.53
2022-12-18T12:57:57.716Z,29.58
2022-12-18T13:00:21.012Z,29.27
2022-12-18T13:02:57.762Z,31.35
2022-12-18T13:05:36.415Z,38.00
2022-12-18T13:08:13.388Z,32.33
2022-12-18T13:10:42.996Z,32.30
2022-12-18T13:13:13.311Z,34.42
2022-12-18T13:16:05.488Z,33.20
2022-12-18T13:18:30.195Z,35.35
2022-12-18T13:20:59.956Z,38.77
2022-12-18T13:23:28.149Z,39.72
2022-12-18T13:25:53.059Z,38.13
2022-12-18T13:28:17.680Z,36.28
2022-12-18T13:30:40.224Z,36.40
2022-12-18T13:33:14.977Z,37.67
2022-12-18T13:35:40.408Z,40.03
2022-12-18T13:38:32.634Z,45.72
2022-12-18T13:40:57.299Z,40.28
2022-12-18T13:43:22.613Z,39.38
2022-12-18T13:45:49.047Z,40.33
2022-12-18T13:48:20.280Z,37.85
2022-12-18T13:50:43.581Z,38.55
2022-12-18T13:53:06.427Z,41.03
2022-12-18T13:55:29.725Z,41.22
2022-12-18T13:58:05.067Z,39.23
2022-12-18T14:00:30.585Z,34.70
2022-12-18T14:02:53.774Z,41.78
2022-12-18T14:05:23.636Z,40.60
2022-12-18T14:07:50.679Z,44.00
2022-12-18T14:13:06.895Z,44.58
2022-12-18T14:15:42.258Z,42.92
2022-12-18T14:18:26.309Z,38.90
2022-12-18T14:20:53.193Z,40.65
2022-12-18T14:23:43.381Z,42.23
2022-12-18T14:26:29.385Z,42.03
2022-12-18T14:28:52.281Z,41.40
2022-12-18T14:31:23.271Z,40.90
2022-12-18T14:33:45.871Z,40.65
2022-12-18T14:36:18.066Z,44.13
2022-12-18T14:38:41.441Z,41.65
2022-12-18T14:41:13.315Z,41.67
2022-12-18T14:43:38.983Z,44.40
2022-12-18T14:46:03.894Z,42.55
2022-12-18T14:48:42.742Z,46.50
2022-12-18T14:51:18.578Z,39.83
2022-12-18T14:53:48.890Z,41.08
2022-12-18T14:56:23.174Z,46.75
2022-12-18T14:58:52.819Z,40.80
2022-12-18T15:01:24.048Z,40.70
2022-12-18T15:03:47.039Z,45.33
2022-12-18T15:06:25.218Z,46.97
2022-12-18T15:08:47.911Z,43.42
2022-12-18T15:11:57.108Z,43.83
2022-12-18T15:14:35.900Z,44.33
2022-12-18T15:17:00.631Z,48.10
2022-12-18T15:19:33.492Z,43.78
2022-12-18T15:22:05.875Z,43.15
2022-12-18T15:24:33.217Z,45.08
2022-12-18T15:26:55.900Z,40.70
2022-12-18T15:29:26.288Z,46.58
2022-12-18T15:32:04.380Z,43.28
2022-12-18T15:34:27.853Z,44.55
2022-12-18T15:36:52.312Z,45.85
2022-12-18T15:39:15.056Z,46.90
2022-12-18T15:41:37.902Z,43.67
2022-12-18T15:44:46.062Z,43.92
2022-12-18T15:47:13.024Z,43.92
2022-12-18T15:49:35.935Z,44.53
2022-12-18T15:52:00.871Z,47.13
2022-12-18T15:54:43.804Z,50.75
2022-12-18T15:57:25.626Z,48.45
2022-12-18T15:59:49.112Z,48.45
2022-12-18T16:02:18.563Z,47.95
2022-12-18T16:04:41.516Z,48.10
2022-12-18T16:07:25.223Z,47.10
2022-12-18T16:09:48.705Z,47.03
2022-12-18T16:12:18.064Z,48.95
2022-12-18T16:14:40.817Z,49.78
2022-12-18T16:17:07.127Z,47.00
2022-12-18T16:19:30.860Z,47.70
2022-12-18T16:21:55.930Z,47.78
2022-12-18T16:24:23.984Z,54.05
2022-12-18T16:26:46.741Z,48.53
2022-12-18T16:29:10.471Z,49.90
2022-12-18T16:31:33.928Z,54.50
2022-12-18T16:34:19.484Z,52.05
2022-12-18T16:36:44.742Z,51.00
2022-12-18T16:39:07.569Z,53.78
2022-12-18T16:41:33.392Z,52.47
2022-12-18T16:43:57.278Z,49.38
2022-12-18T16:46:20.565Z,50.90
2022-12-18T16:48:43.437Z,44.97
2022-12-18T16:51:06.472Z,51.35
2022-12-18T16:53:29.422Z,50.40
2022-12-18T16:55:56.500Z,60.75
2022-12-18T16:58:19.418Z,48.35
2022-12-18T17:00:42.295Z,50.17
2022-12-18T17:03:06.219Z,49.22
2022-12-18T17:05:29.310Z,54.60
2022-12-18T17:07:51.936Z,46.00
2022-12-18T17:10:14.968Z,50.42
2022-12-18T17:12:38.864Z,46.75
2022-12-18T17:15:01.692Z,52.92
2022-12-18T17:17:24.812Z,50.83
2022-12-18T17:19:47.859Z,53.45
2022-12-18T17:22:10.440Z,63.47
2022-12-18T17:24:35.365Z,62.10
2022-12-18T17:26:58.427Z,58.25
2022-12-18T17:29:21.533Z,59.73
2022-12-18T17:31:47.888Z,59.13
2022-12-18T17:34:12.549Z,59.13
2022-12-18T17:36:35.206Z,59.55
2022-12-18T17:39:02.323Z,59.13
2022-12-18T17:41:25.887Z,55.60
2022-12-18T17:43:53.963Z,52.75
2022-12-18T17:46:16.769Z,54.05
2022-12-18T17:48:40.391Z,58.70
2022-12-18T17:51:05.045Z,61.22
2022-12-18T17:53:28.084Z,62.50
2022-12-18T17:55:56.390Z,61.28
2022-12-18T17:58:18.945Z,55.65
2022-12-18T18:00:42.868Z,61.50
2022-12-18T18:03:06.016Z,57.47
2022-12-18T18:05:29.189Z,58.57
2022-12-18T18:07:51.969Z,64.50
2022-12-18T18:10:16.989Z,66.00
2022-12-18T18:12:58.651Z,65.20
2022-12-18T18:15:22.191Z,61.88
2022-12-18T18:17:45.112Z,68.33
2022-12-18T18:20:08.693Z,60.72
2022-12-18T18:22:32.521Z,59.38
2022-12-18T18:24:55.392Z,57.30
2022-12-18T18:27:18.487Z,67.68
2022-12-18T18:29:41.516Z,60.30
2022-12-18T18:32:04.851Z,64.38
2022-12-18T18:34:31.389Z,83.65
2022-12-18T18:37:01.624Z,73.88
2022-12-18T18:39:24.982Z,81.45
2022-12-18T18:41:48.632Z,86.63
2022-12-18T18:44:11.897Z,84.90
2022-12-18T18:46:34.673Z,82.28
2022-12-18T18:48:57.584Z,91.10
2022-12-18T18:51:21.857Z,91.55
2022-12-18T18:53:46.945Z,86.87
2022-12-18T18:58:56.081Z,84.40
2022-12-18T19:01:20.979Z,80.88
2022-12-18T19:03:44.937Z,89.60
2022-12-18T19:06:08.813Z,89.37
2022-12-18T19:08:37.247Z,100.20
2022-12-18T19:11:01.571Z,102.07
2022-12-18T19:13:26.973Z,121.22
2022-12-18T19:15:49.957Z,107.55
2022-12-18T19:18:12.768Z,121.47
2022-12-18T19:20:35.799Z,113.10
2022-12-18T19:22:58.939Z,138.35
2022-12-18T19:25:21.961Z,143.88
2022-12-18T19:27:44.929Z,156.68
2022-12-18T19:30:09.003Z,170.00
2022-12-18T19:32:32.242Z,174.40
2022-12-18T19:34:55.070Z,208.18
2022-12-18T19:37:18.312Z,231.82
2022-12-18T19:39:41.276Z,277.05
2022-12-18T19:42:04.500Z,260.77
2022-12-18T19:44:27.235Z,244.13
2022-12-18T19:46:51.567Z,244.45
2022-12-18T19:49:18.083Z,222.85
2022-12-18T19:51:42.655Z,244.73
2022-12-18T19:54:05.624Z,234.23
2022-12-18T19:56:32.126Z,218.50
2022-12-18T19:58:55.644Z,218.27
2022-12-18T20:01:20.031Z,211.90
2022-12-18T20:03:43.721Z,223.27
2022-12-18T20:06:14.454Z,221.07
2022-12-18T20:08:38.231Z,212.90
2022-12-18T20:11:03.844Z,206.20
2022-12-18T20:13:27.120Z,211.48
2022-12-18T20:15:50.417Z,198.23
2022-12-18T20:18:13.133Z,199.67
2022-12-18T20:20:37.483Z,182.52
2022-12-18T20:23:00.440Z,140.15
2022-12-18T20:25:23.319Z,132.18
2022-12-18T20:27:46.281Z,136.85
2022-12-18T20:30:10.012Z,143.03
2022-12-18T20:32:37.064Z,149.55
2022-12-18T20:35:00.113Z,137.27
2022-12-18T20:37:27.017Z,142.60
2022-12-18T20:39:51.683Z,150.57
2022-12-18T20:42:14.557Z,154.67
2022-12-18T20:44:37.457Z,137.15
2022-12-18T20:47:04.955Z,158.40
2022-12-18T20:49:31.432Z,172.65
2022-12-18T20:51:56.438Z,183.02
2022-12-18T20:54:19.714Z,176.83
2022-12-18T20:56:42.289Z,177.93
2022-12-18T20:59:05.188Z,170.70
2022-12-18T21:01:29.830Z,174.60
2022-12-18T21:03:53.244Z,179.10
2022-12-18T21:06:17.406Z,197.83
2022-12-18T21:08:40.111Z,206.95
2022-12-18T21:11:36.182Z,207.48
2022-12-18T21:13:58.845Z,191.73
2022-12-18T21:16:21.498Z,199.38
2022-12-18T21:18:44.245Z,177.17
2022-12-18T21:21:06.831Z,186.93
2022-12-18T21:23:29.712Z,191.57
2022-12-18T21:25:55.978Z,176.68
2022-12-18T21:28:19.121Z,190.63
2022-12-18T21:30:41.724Z,187.00
2022-12-18T21:33:04.443Z,171.13
2022-12-18T21:35:27.039Z,180.45
2022-12-18T21:37:52.308Z,183.65
2022-12-18T21:40:15.076Z,175.10
2022-12-18T21:42:56.138Z,185.17
2022-12-18T21:45:18.896Z,186.27
2022-12-18T21:47:41.562Z,183.00
2022-12-18T21:50:04.910Z,191.77
2022-12-18T21:52:31.347Z,186.20
2022-12-18T21:54:55.243Z,175.67
2022-12-18T21:57:18.727Z,185.48
2022-12-18T21:59:43.390Z,203.85
2022-12-18T22:02:11.063Z,203.43
2022-12-18T22:04:34.091Z,195.52
2022-12-18T22:06:57.218Z,195.63
2022-12-18T22:09:24.753Z,203.07
2022-12-18T22:11:47.927Z,176.20
2022-12-18T22:14:11.491Z,200.88
2022-12-18T22:16:36.162Z,190.98
2022-12-18T22:19:08.208Z,197.83
2022-12-18T22:21:33.243Z,186.05
2022-12-18T22:23:59.505Z,187.35
2022-12-18T22:26:23.604Z,183.27
2022-12-18T22:29:04.927Z,188.20
2022-12-18T22:31:27.583Z,169.03
2022-12-18T22:33:51.168Z,182.10
2022-12-18T22:36:13.720Z,183.23
2022-12-18T22:38:37.896Z,173.05
2022-12-18T22:41:00.666Z,171.32
2022-12-18T22:43:23.298Z,150.87
2022-12-18T22:45:47.699Z,162.13
2022-12-18T22:48:10.535Z,153.13
2022-12-18T22:50:33.939Z,157.45
2022-12-18T22:52:56.405Z,164.05
2022-12-18T22:55:19.325Z,164.30
2022-12-18T22:57:45.055Z,150.45
2022-12-18T23:00:13.131Z,157.20
2022-12-18T23:02:35.953Z,157.20
2022-12-18T23:04:58.616Z,150.35
2022-12-18T23:07:21.401Z,149.03
2022-12-18T23:09:44.322Z,153.82
2022-12-18T23:12:14.335Z,157.80
2022-12-18T23:14:36.964Z,149.85
2022-12-18T23:16:59.656Z,156.30
2022-12-18T23:19:23.463Z,158.97
2022-12-18T23:21:46.740Z,146.88
2022-12-18T23:24:09.680Z,151.23
2022-12-18T23:26:32.224Z,155.68
2022-12-18T23:28:56.755Z,149.68
2022-12-18T23:31:23.796Z,136.37
2022-12-18T23:33:47.822Z,131.95
2022-12-18T23:36:11.845Z,141.20
2022-12-18T23:38:35.187Z,134.93
2022-12-18T23:40:58.244Z,128.48
2022-12-18T23:43:20.904Z,131.30
2022-12-18T23:45:43.482Z,123.57
2022-12-18T23:48:06.300Z,129.98
2022-12-18T23:50:30.142Z,127.10
2022-12-18T23:52:52.915Z,129.88
2022-12-18T23:55:15.351Z,118.17
2022-12-18T23:57:37.956Z,121.60
